Time;durP1;ratioP1;P1;durP2;ratioP2;P2;SDS_P1;SDS_P2;PMS_P1;PMS_P2;Temp;Humidity;BMP_temperature;BMP_pressure;BME280_temperature;BME280_humidity;BME280_pressure;Samples;Min_cycle;Max_cycle;Signal;HPM_P1;HPM_P2
2022/06/13 00:01:36;;;;;;;6.17;2.70;;;;;;;17.39;59.85;101114.72;4980487;28;20233;-85
2022/06/13 00:04:04;;;;;;;7.40;3.30;;;;;;;17.36;59.93;101117.69;4982872;28;20213;-85
2022/06/13 00:06:31;;;;;;;7.53;2.63;;;;;;;17.34;60.33;101120.50;4985634;28;20206;-85
2022/06/13 00:08:59;;;;;;;6.73;3.00;;;;;;;17.34;60.41;101117.81;4986223;28;20211;-86
2022/06/13 00:11:26;;;;;;;7.23;3.00;;;;;;;17.35;60.43;101116.00;4986398;28;20601;-86
2022/06/13 00:13:55;;;;;;;7.30;2.50;;;;;;;17.36;60.43;101117.69;4990577;28;20209;-86
2022/06/13 00:16:22;;;;;;;5.53;2.50;;;;;;;17.34;60.44;101114.28;4990735;28;20610;-85
2022/06/13 00:18:49;;;;;;;10.30;2.90;;;;;;;17.35;60.45;101116.84;4992476;28;20222;-86
2022/06/13 00:21:17;;;;;;;6.43;2.70;;;;;;;17.34;60.49;101120.50;4982636;28;20225;-85
2022/06/13 00:23:44;;;;;;;10.40;3.13;;;;;;;17.33;60.59;101112.56;4984600;28;20210;-85
2022/06/13 00:26:12;;;;;;;9.20;2.77;;;;;;;17.33;60.63;101115.25;4987071;28;20208;-86
2022/06/13 00:28:38;;;;;;;5.73;2.43;;;;;;;17.31;60.51;101103.75;4987515;28;20211;-85
2022/06/13 00:31:05;;;;;;;7.23;2.50;;;;;;;17.28;60.56;101110.25;4982975;28;20226;-85
2022/06/13 00:33:31;;;;;;;7.27;2.87;;;;;;;17.26;60.78;101122.97;4985168;28;20206;-84
2022/06/13 00:35:58;;;;;;;9.60;2.80;;;;;;;17.27;60.89;101126.53;4992461;28;20221;-85
2022/06/13 00:38:24;;;;;;;6.80;3.10;;;;;;;17.28;60.92;101114.78;4986251;28;20235;-84
2022/06/13 00:40:51;;;;;;;10.23;2.87;;;;;;;17.28;60.91;101112.94;4981175;28;20229;-85
2022/06/13 00:43:19;;;;;;;7.33;3.03;;;;;;;17.28;60.83;101115.63;4983766;28;20218;-85
2022/06/13 00:45:46;;;;;;;8.53;2.90;;;;;;;17.30;60.91;101112.81;4984589;28;20216;-84
2022/06/13 00:48:14;;;;;;;6.20;2.77;;;;;;;17.29;60.66;101116.50;4984714;28;20209;-84
2022/06/13 00:50:47;;;;;;;6.77;2.63;;;;;;;17.27;60.58;101116.63;4986618;28;20231;-85
2022/06/13 00:53:19;;;;;;;8.17;3.03;;;;;;;17.24;60.63;101121.41;4990563;28;20664;-85
2022/06/13 00:55:49;;;;;;;8.77;3.37;;;;;;;17.21;60.37;101116.25;4988570;28;20209;-85
2022/06/13 00:58:16;;;;;;;9.87;3.30;;;;;;;17.16;60.55;101119.38;4991952;28;20217;-84
2022/06/13 01:00:49;;;;;;;5.50;3.17;;;;;;;17.12;60.62;101120.59;4986978;28;20233;-86
2022/06/13 01:03:16;;;;;;;5.50;2.70;;;;;;;17.10;60.99;101108.25;4987200;28;20210;-85
2022/06/13 01:05:46;;;;;;;5.17;2.67;;;;;;;17.10;60.98;101122.56;4988648;28;20758;-85
2022/06/13 01:08:14;;;;;;;7.67;2.80;;;;;;;17.09;60.83;101120.84;4987978;28;20217;-85
2022/06/13 01:13:52;;;;;;;6.20;2.40;;;;;;;17.05;60.88;101119.38;4991968;28;20207;-84
2022/06/13 01:16:34;;;;;;;8.17;2.80;;;;;;;17.01;61.02;101112.56;4988826;28;20217;-85
2022/06/13 01:19:42;;;;;;;6.23;2.70;;;;;;;16.96;61.16;101115.63;4982246;28;20224;-85
2022/06/13 01:22:27;;;;;;;6.27;2.87;;;;;;;16.91;61.69;101117.00;4953247;28;20605;-84
2022/06/13 01:25:23;;;;;;;6.03;2.40;;;;;;;16.89;62.07;101116.25;4984277;28;20218;-85
2022/06/13 01:28:20;;;;;;;8.00;3.23;;;;;;;16.86;62.00;101122.75;4984778;28;20209;-86
2022/06/13 01:31:18;;;;;;;6.87;2.67;;;;;;;16.80;61.78;101115.19;4983008;28;20228;-85
2022/06/13 01:33:57;;;;;;;4.90;2.90;;;;;;;16.74;62.01;101110.31;4971777;28;20669;-86
2022/06/13 01:36:37;;;;;;;9.67;3.10;;;;;;;16.69;62.26;101117.88;4987392;28;20205;-85
2022/06/13 01:39:16;;;;;;;7.30;2.97;;;;;;;16.65;62.47;101108.38;4988962;28;20227;-85
2022/06/13 01:41:51;;;;;;;9.77;4.03;;;;;;;16.64;63.25;101112.06;4984334;28;20242;-85
2022/06/13 01:44:27;;;;;;;5.13;2.90;;;;;;;16.64;63.26;101099.47;4985323;28;20205;-86
2022/06/13 01:47:03;;;;;;;6.50;2.67;;;;;;;16.60;63.05;101106.03;4984790;28;20203;-85
2022/06/13 01:49:35;;;;;;;5.47;2.53;;;;;;;16.54;63.13;101109.19;4991919;28;20300;-85
2022/06/13 01:52:08;;;;;;;5.50;3.00;;;;;;;16.49;63.28;101103.34;4985553;28;20601;-85
2022/06/13 01:54:43;;;;;;;6.20;2.70;;;;;;;16.48;63.39;101106.19;4981265;28;20204;-85
2022/06/13 01:57:20;;;;;;;11.53;3.60;;;;;;;16.47;63.32;101108.00;4982220;28;20230;-84
2022/06/13 01:59:53;;;;;;;9.63;3.00;;;;;;;16.46;63.17;101106.28;4984172;28;20220;-85
2022/06/13 02:02:31;;;;;;;6.67;2.77;;;;;;;16.46;63.05;101103.59;4988331;28;20246;-85
2022/06/13 02:05:02;;;;;;;8.30;2.93;;;;;;;16.45;62.87;101098.34;4989780;28;20660;-84
2022/06/13 02:07:36;;;;;;;3.90;2.47;;;;;;;16.38;62.56;101102.50;4986279;28;20204;-84
2022/06/13 02:10:07;;;;;;;7.00;2.80;;;;;;;16.31;63.04;101102.97;4980158;28;20196;-84
2022/06/13 02:12:36;;;;;;;6.67;2.53;;;;;;;16.25;63.19;101103.50;4986787;28;20209;-85
2022/06/13 02:15:08;;;;;;;7.97;2.97;;;;;;;16.23;63.34;101104.59;4983780;28;20254;-86
2022/06/13 02:17:43;;;;;;;5.90;2.60;;;;;;;16.17;63.39;101097.00;4989119;28;20391;-85
2022/06/13 02:20:15;;;;;;;5.27;2.27;;;;;;;16.12;63.46;101093.84;4986269;28;20602;-86
2022/06/13 02:22:43;;;;;;;6.33;2.70;;;;;;;16.09;63.61;101092.25;4977858;28;20650;-85
2022/06/13 02:25:17;;;;;;;5.90;2.50;;;;;;;16.06;63.36;101086.25;4986587;28;20213;-85
2022/06/13 02:27:48;;;;;;;6.87;2.83;;;;;;;16.00;63.37;101078.69;4988033;28;20192;-84
2022/06/13 02:30:19;;;;;;;5.03;2.67;;;;;;;15.95;63.62;101079.88;4986177;28;20212;-85
2022/06/13 02:32:51;;;;;;;7.10;2.97;;;;;;;15.95;63.94;101089.78;4984824;28;20208;-85
2022/06/13 02:35:22;;;;;;;7.53;2.43;;;;;;;15.92;64.04;101092.72;4990691;28;20571;-85
2022/06/13 02:37:54;;;;;;;4.03;2.37;;;;;;;15.88;63.26;101099.31;4978893;28;20207;-85
2022/06/13 02:40:24;;;;;;;5.50;2.90;;;;;;;15.82;63.33;101099.78;4983650;28;20216;-85
2022/06/13 02:42:56;;;;;;;7.67;2.90;;;;;;;15.75;63.00;101099.44;4984786;28;20204;-85
2022/06/13 02:45:28;;;;;;;6.83;2.43;;;;;;;15.70;63.30;101096.22;4985138;28;20211;-85
2022/06/13 02:48:02;;;;;;;6.57;3.17;;;;;;;15.66;63.36;101105.50;4982994;28;20200;-85
2022/06/13 02:50:37;;;;;;;4.30;2.57;;;;;;;15.61;63.42;101097.78;4988415;28;20274;-85
2022/06/13 02:53:11;;;;;;;6.63;3.07;;;;;;;15.53;63.11;101110.06;4989168;28;20207;-84
2022/06/13 02:55:42;;;;;;;4.30;2.57;;;;;;;15.41;62.88;101114.53;4988660;28;20210;-84
2022/06/13 02:58:22;;;;;;;6.47;3.30;;;;;;;15.31;63.43;101108.16;4989178;28;20203;-85
2022/06/13 03:01:06;;;;;;;4.80;2.80;;;;;;;15.24;64.03;101099.72;4978124;28;20228;-85
2022/06/13 03:03:45;;;;;;;6.17;2.83;;;;;;;15.16;63.98;101110.19;4986527;28;20206;-84
2022/06/13 03:06:20;;;;;;;5.30;2.57;;;;;;;15.09;64.57;101111.59;4984978;28;20547;-85
2022/06/13 03:08:57;;;;;;;8.53;3.00;;;;;;;15.04;64.82;101111.13;4992168;28;20213;-85
2022/06/13 03:11:56;;;;;;;7.00;3.13;;;;;;;14.99;65.93;101105.22;4982286;28;20227;-84
2022/06/13 03:14:39;;;;;;;9.00;3.30;;;;;;;14.97;66.70;101101.78;4992769;28;20215;-84
2022/06/13 03:17:12;;;;;;;9.13;3.93;;;;;;;14.98;66.62;101106.19;4988485;28;20211;-84
2022/06/13 03:19:47;;;;;;;6.83;3.20;;;;;;;14.97;66.91;101104.47;4989290;28;20218;-84
2022/06/13 03:22:19;;;;;;;8.27;3.57;;;;;;;14.99;67.16;101096.31;4996550;28;20596;-84
2022/06/13 03:24:54;;;;;;;7.63;3.13;;;;;;;15.01;67.06;101110.47;4993886;28;20210;-84
2022/06/13 03:27:27;;;;;;;6.80;3.30;;;;;;;15.01;67.59;101116.69;4989131;28;20548;-84
2022/06/13 03:29:59;;;;;;;10.07;3.33;;;;;;;15.02;67.44;101114.88;4993458;28;20266;-84
2022/06/13 03:32:32;;;;;;;8.10;3.20;;;;;;;15.00;67.61;101119.50;4989387;28;20231;-84
2022/06/13 03:35:06;;;;;;;8.83;3.63;;;;;;;14.98;67.85;101124.97;4992221;28;20200;-84
2022/06/13 03:37:35;;;;;;;7.80;3.43;;;;;;;14.98;68.93;101130.34;4985748;28;20226;-85
2022/06/13 03:40:06;;;;;;;9.80;3.87;;;;;;;15.01;69.07;101123.88;4989498;28;20254;-85
2022/06/13 03:42:39;;;;;;;10.17;4.03;;;;;;;15.04;69.74;101135.25;4985781;28;20800;-84
2022/06/13 03:45:10;;;;;;;9.83;3.93;;;;;;;15.08;69.70;101141.22;4988186;28;20204;-84
2022/06/13 03:47:43;;;;;;;8.67;3.83;;;;;;;15.09;69.72;101151.84;4987917;28;20692;-84
2022/06/13 03:50:17;;;;;;;9.00;3.80;;;;;;;15.13;70.00;101152.47;4987980;28;20584;-85
2022/06/13 03:52:50;;;;;;;6.73;4.03;;;;;;;15.13;70.35;101150.66;4993226;28;20199;-85
2022/06/13 03:55:21;;;;;;;7.63;3.83;;;;;;;15.14;70.06;101148.81;4991610;28;20208;-84
2022/06/13 03:57:51;;;;;;;12.63;4.13;;;;;;;15.15;70.34;101154.09;4991184;28;20207;-84
2022/06/13 04:00:22;;;;;;;8.20;4.40;;;;;;;15.16;70.58;101154.94;4988010;28;20224;-84
2022/06/13 04:02:49;;;;;;;6.83;3.53;;;;;;;15.16;70.46;101150.44;4984551;28;20196;-85
2022/06/13 04:05:23;;;;;;;10.33;4.03;;;;;;;15.17;70.62;101153.97;4989356;28;20287;-84
2022/06/13 04:07:49;;;;;;;12.47;4.20;;;;;;;15.17;71.01;101149.47;4989870;28;20207;-85
2022/06/13 04:10:18;;;;;;;9.10;3.97;;;;;;;15.19;71.17;101143.97;4989337;28;20207;-84
2022/06/13 04:13:02;;;;;;;12.30;4.77;;;;;;;15.21;71.11;101140.22;4991311;28;20212;-85
2022/06/13 04:15:56;;;;;;;6.87;3.83;;;;;;;15.23;70.75;101137.38;4987971;28;20211;-84
2022/06/13 04:18:37;;;;;;;10.70;4.20;;;;;;;15.25;71.08;101146.19;4983404;28;20226;-84
2022/06/13 04:21:18;;;;;;;7.80;3.60;;;;;;;15.25;71.06;101143.50;4987791;28;20286;-84
2022/06/13 04:23:51;;;;;;;8.97;3.70;;;;;;;15.26;71.19;101124.59;4986747;28;20203;-84
2022/06/13 04:26:20;;;;;;;11.87;3.97;;;;;;;15.27;70.75;101120.94;4981920;28;20200;-84
2022/06/13 04:28:54;;;;;;;8.87;3.70;;;;;;;15.28;70.82;101122.66;4986804;28;20207;-84
2022/06/13 04:31:23;;;;;;;7.03;3.70;;;;;;;15.29;70.21;101124.38;4983014;28;20283;-84
2022/06/13 04:33:54;;;;;;;10.37;3.90;;;;;;;15.27;69.71;101123.63;4992273;28;20206;-85
2022/06/13 04:36:24;;;;;;;12.33;3.90;;;;;;;15.26;69.64;101118.38;4992574;28;20206;-84
2022/06/13 04:38:55;;;;;;;6.90;3.43;;;;;;;15.24;69.70;101121.19;4985877;28;20259;-85
2022/06/13 04:41:24;;;;;;;8.27;3.83;;;;;;;15.25;69.23;101125.56;4989041;28;20678;-85
2022/06/13 04:43:55;;;;;;;9.00;3.80;;;;;;;15.25;69.08;101119.34;4991186;28;20230;-84
2022/06/13 04:46:25;;;;;;;9.23;3.77;;;;;;;15.23;68.75;101123.97;4994644;28;20577;-84
2022/06/13 04:48:54;;;;;;;8.40;3.60;;;;;;;15.21;68.71;101129.50;4990280;28;20691;-84
2022/06/13 04:51:26;;;;;;;8.50;3.80;;;;;;;15.20;68.73;101117.03;4992441;28;20224;-84
2022/06/13 04:53:56;;;;;;;10.63;4.20;;;;;;;15.20;68.98;101111.66;4993046;28;20220;-86
2022/06/13 04:56:23;;;;;;;8.87;3.63;;;;;;;15.20;68.70;101117.03;4990647;28;20206;-84
2022/06/13 04:58:52;;;;;;;10.40;3.67;;;;;;;15.21;68.87;101113.38;4996757;28;20200;-85
2022/06/13 05:01:24;;;;;;;7.23;3.40;;;;;;;15.21;68.63;101108.03;4992580;28;20227;-85
2022/06/13 05:03:52;;;;;;;8.97;3.80;;;;;;;15.22;68.91;101111.56;4989445;28;20210;-85
2022/06/13 05:06:28;;;;;;;9.30;3.43;;;;;;;15.25;68.79;101116.66;4984281;28;20206;-84
2022/06/13 05:08:57;;;;;;;6.67;3.20;;;;;;;15.26;68.68;101118.38;4984622;28;20208;-84
2022/06/13 05:11:28;;;;;;;8.87;3.10;;;;;;;15.28;69.00;101125.34;4983722;28;20911;-84
2022/06/13 05:13:59;;;;;;;6.67;3.43;;;;;;;15.28;69.16;101125.34;4987566;28;20200;-84
2022/06/13 05:16:35;;;;;;;8.87;3.87;;;;;;;15.29;68.75;101129.75;4983985;28;20220;-84
2022/06/13 05:19:20;;;;;;;8.00;3.57;;;;;;;15.31;68.81;101126.09;4990851;28;20217;-84
2022/06/13 05:22:00;;;;;;;7.60;3.60;;;;;;;15.34;68.94;101133.91;4988909;28;20307;-84
2022/06/13 05:24:47;;;;;;;8.30;3.50;;;;;;;15.38;69.28;101133.56;4988332;28;20239;-86
2022/06/13 05:27:14;;;;;;;7.93;3.30;;;;;;;15.40;68.97;101139.69;4986977;28;20214;-83
2022/06/13 05:29:41;;;;;;;9.03;3.70;;;;;;;15.41;68.58;101137.84;4988566;28;20211;-84
2022/06/13 05:32:10;;;;;;;8.63;3.60;;;;;;;15.42;68.74;101140.41;4993440;28;20337;-83
2022/06/13 05:34:41;;;;;;;12.03;3.93;;;;;;;15.41;68.66;101141.38;4984556;28;20232;-83
2022/06/13 05:37:13;;;;;;;8.80;3.37;;;;;;;15.40;68.69;101125.41;4988113;28;20207;-83
2022/06/13 05:39:39;;;;;;;9.57;3.93;;;;;;;15.41;68.83;101132.47;4987813;28;20208;-83
2022/06/13 05:42:06;;;;;;;10.30;3.67;;;;;;;15.42;68.90;101135.03;4982505;28;20230;-83
2022/06/13 05:44:33;;;;;;;9.73;3.70;;;;;;;15.42;68.93;101129.66;4987992;28;20208;-83
2022/06/13 05:46:59;;;;;;;9.67;4.33;;;;;;;15.43;68.85;101135.88;4996544;28;20203;-83
2022/06/13 05:49:26;;;;;;;11.33;4.00;;;;;;;15.45;69.49;101142.00;4995736;28;20283;-84
2022/06/13 05:51:52;;;;;;;8.03;3.00;;;;;;;15.47;69.21;101137.38;4993202;28;20223;-84
2022/06/13 05:54:20;;;;;;;11.50;3.70;;;;;;;15.47;69.10;101146.28;4988648;28;20594;-83
2022/06/13 05:56:47;;;;;;;10.47;3.57;;;;;;;15.49;68.56;101144.34;4982538;28;20207;-83
2022/06/13 05:59:13;;;;;;;7.40;4.00;;;;;;;15.50;68.73;101143.38;4986609;28;20212;-84
2022/06/13 06:01:40;;;;;;;6.67;3.47;;;;;;;15.53;68.40;101144.97;4987388;28;20696;-83
2022/06/13 06:04:07;;;;;;;4.90;3.10;;;;;;;15.54;68.37;101147.53;4990236;28;20199;-81
2022/06/13 06:06:34;;;;;;;9.00;3.87;;;;;;;15.57;68.29;101144.66;4990330;28;20203;-81
2022/06/13 06:09:02;;;;;;;8.00;4.07;;;;;;;15.61;68.21;101145.25;4992491;28;20610;-82
2022/06/13 06:11:30;;;;;;;10.27;3.80;;;;;;;15.65;68.23;101146.75;4988355;28;20306;-81
2022/06/13 06:13:58;;;;;;;10.80;3.60;;;;;;;15.71;67.86;101156.16;4993928;28;20214;-81
2022/06/13 06:16:27;;;;;;;10.17;3.57;;;;;;;15.77;67.73;101156.53;4991552;28;20212;-82
2022/06/13 06:18:54;;;;;;;5.97;3.43;;;;;;;15.83;67.70;101149.84;4982901;28;20236;-82
2022/06/13 06:21:21;;;;;;;7.33;3.47;;;;;;;15.88;67.57;101143.16;4988834;28;20690;-81
2022/06/13 06:23:48;;;;;;;9.13;3.50;;;;;;;15.94;67.44;101150.72;4997772;28;20689;-81
2022/06/13 06:26:17;;;;;;;9.30;3.70;;;;;;;16.01;67.45;101147.56;4994231;28;20205;-81
2022/06/13 06:28:45;;;;;;;10.30;3.57;;;;;;;16.09;67.24;101155.88;4981885;28;20208;-81
2022/06/13 06:31:12;;;;;;;6.97;3.20;;;;;;;16.14;67.16;101159.03;4988278;28;20219;-81
2022/06/13 06:33:39;;;;;;;7.57;3.60;;;;;;;16.18;67.15;101160.53;4996512;28;20276;-81
2022/06/13 06:36:06;;;;;;;7.33;3.60;;;;;;;16.20;66.94;101164.81;4995426;28;20205;-82
2022/06/13 06:38:33;;;;;;;9.13;3.27;;;;;;;16.22;66.52;101164.69;4993828;28;20290;-81
2022/06/13 06:40:59;;;;;;;7.57;3.70;;;;;;;16.26;66.83;101168.84;4978483;28;20239;-83
2022/06/13 06:43:26;;;;;;;9.60;3.77;;;;;;;16.32;67.00;101165.66;4983178;28;20217;-82
2022/06/13 06:45:54;;;;;;;10.40;3.50;;;;;;;16.40;67.14;101168.59;4988705;28;21446;-81
2022/06/13 06:48:23;;;;;;;9.20;3.27;;;;;;;16.45;66.71;101169.09;4987915;28;20204;-82
2022/06/13 06:50:51;;;;;;;7.67;3.27;;;;;;;16.49;66.28;101175.94;4988369;28;20228;-81
2022/06/13 06:53:19;;;;;;;8.07;3.33;;;;;;;16.52;65.78;101164.94;4989888;28;20210;-82
2022/06/13 07:01:17;;;;;;;7.47;3.07;;;;;;;16.56;65.46;101165.53;4992235;28;20236;-81
2022/06/13 07:03:45;;;;;;;11.80;3.77;;;;;;;16.63;65.53;101166.81;4994775;28;20669;-81
2022/06/13 07:06:12;;;;;;;8.03;3.30;;;;;;;16.67;65.14;101157.50;4992536;28;20235;-81
2022/06/13 07:08:39;;;;;;;10.10;3.77;;;;;;;16.70;64.34;101170.69;4976081;28;20213;-80
2022/06/13 07:13:52;;;;;;;9.33;3.30;;;;;;;16.76;64.36;101164.84;4991573;28;20576;-80
2022/06/13 07:16:20;;;;;;;6.17;3.30;;;;;;;16.83;64.38;101162.50;4987792;28;20221;-79
2022/06/13 07:18:47;;;;;;;7.60;3.13;;;;;;;16.87;64.20;101161.25;4987236;28;20210;-79
2022/06/13 07:21:14;;;;;;;9.40;2.97;;;;;;;16.89;63.58;101159.31;4977568;28;20245;-79
2022/06/13 07:23:40;;;;;;;8.47;3.30;;;;;;;16.92;63.35;101161.75;4984499;28;20210;-79
2022/06/13 07:26:07;;;;;;;6.60;2.83;;;;;;;16.96;62.90;101160.53;4982752;28;20217;-80
2022/06/13 07:28:34;;;;;;;6.17;2.93;;;;;;;16.99;62.51;101157.59;4990508;28;20205;-79
2022/06/13 07:31:00;;;;;;;7.10;2.87;;;;;;;17.02;62.33;101151.94;4983276;28;20230;-80
2022/06/13 07:33:29;;;;;;;7.23;3.27;;;;;;;17.12;62.22;101146.66;4989741;28;20206;-79
2022/06/13 07:35:55;;;;;;;8.33;3.30;;;;;;;17.29;62.24;101157.72;4979098;28;20207;-80
2022/06/13 07:38:22;;;;;;;6.13;2.77;;;;;;;17.48;61.73;101146.28;4976399;28;20211;-79
2022/06/13 07:40:51;;;;;;;6.30;3.20;;;;;;;17.71;61.02;101155.13;4986574;28;20664;-80
2022/06/13 07:43:27;;;;;;;7.23;2.80;;;;;;;17.88;60.19;101159.94;4988715;28;20562;-79
2022/06/13 07:45:54;;;;;;;6.70;3.03;;;;;;;18.06;58.84;101159.34;4984429;28;20203;-80
2022/06/13 07:48:21;;;;;;;8.43;2.80;;;;;;;18.19;57.97;101162.66;4982582;28;20219;-80
2022/06/13 07:50:48;;;;;;;8.27;3.10;;;;;;;18.29;56.98;101164.41;4985061;28;20225;-80
2022/06/13 07:53:15;;;;;;;9.30;3.37;;;;;;;18.43;57.14;101162.38;4986762;28;20213;-80
2022/06/13 07:55:42;;;;;;;7.33;2.70;;;;;;;18.57;56.79;101170.94;4984398;28;20230;-80
2022/06/13 07:58:16;;;;;;;5.57;2.60;;;;;;;18.76;56.63;101172.03;4986275;28;20204;-80
2022/06/13 08:00:44;;;;;;;7.33;2.90;;;;;;;18.92;55.69;101167.81;4989582;28;20241;-81
2022/06/13 08:03:17;;;;;;;7.47;2.70;;;;;;;19.07;55.42;101169.13;4991473;28;20213;-81
2022/06/13 08:05:44;;;;;;;6.63;2.80;;;;;;;19.23;54.40;101173.97;4993911;28;20204;-80
2022/06/13 08:08:12;;;;;;;8.77;2.90;;;;;;;19.33;53.78;101180.25;4982001;28;20811;-80
2022/06/13 08:10:39;;;;;;;5.33;2.43;;;;;;;19.39;53.29;101176.97;4977583;28;20581;-80
2022/06/13 08:13:06;;;;;;;7.13;3.00;;;;;;;19.55;53.30;101167.47;4989450;28;20204;-79
2022/06/13 08:15:32;;;;;;;5.80;2.67;;;;;;;19.76;53.30;101170.91;4988532;28;20219;-80
2022/06/13 08:17:59;;;;;;;5.87;2.63;;;;;;;19.89;51.95;101171.44;4987004;28;20206;-79
2022/06/13 08:20:25;;;;;;;8.67;2.63;;;;;;;19.95;51.59;101173.56;4978305;28;20641;-80
2022/06/13 08:22:54;;;;;;;5.73;2.60;;;;;;;19.92;50.81;101175.72;4990096;28;20236;-80
2022/06/13 08:25:25;;;;;;;6.53;3.03;;;;;;;19.86;50.40;101169.06;4989518;28;20301;-81
2022/06/13 08:27:52;;;;;;;5.57;2.17;;;;;;;19.80;50.34;101169.63;4981578;28;20212;-80
2022/06/13 08:30:19;;;;;;;5.10;2.10;;;;;;;19.82;50.05;101170.31;4989968;28;20211;-80
2022/06/13 08:32:46;;;;;;;5.23;2.13;;;;;;;19.82;49.92;101170.31;4985684;28;20213;-80
2022/06/13 08:35:14;;;;;;;4.63;1.97;;;;;;;19.84;49.88;101168.34;4990986;28;20590;-80
2022/06/13 08:37:40;;;;;;;5.07;2.37;;;;;;;19.89;49.77;101179.53;4989413;28;20308;-80
2022/06/13 08:40:08;;;;;;;7.20;2.30;;;;;;;20.00;49.28;101162.34;4988243;28;20211;-81
2022/06/13 08:42:43;;;;;;;8.63;2.70;;;;;;;20.18;48.54;101170.53;4997704;28;20236;-80
2022/06/13 08:45:18;;;;;;;7.30;2.33;;;;;;;20.39;48.10;101163.13;4993346;28;20794;-81
2022/06/13 08:47:46;;;;;;;6.67;2.60;;;;;;;20.57;47.08;101166.75;4990242;28;21002;-82
2022/06/13 08:50:20;;;;;;;5.83;2.43;;;;;;;20.64;46.50;101167.84;4987228;28;20656;-80
2022/06/13 08:52:53;;;;;;;4.97;2.13;;;;;;;20.65;46.25;101168.69;4989787;28;20209;-80
2022/06/13 08:55:29;;;;;;;6.57;2.33;;;;;;;20.64;46.22;101167.84;4998100;28;20213;-80
2022/06/13 08:58:04;;;;;;;7.37;2.30;;;;;;;20.60;45.99;101162.88;4988759;28;20373;-80
2022/06/13 09:00:34;;;;;;;5.60;1.77;;;;;;;20.56;45.62;101173.16;4996778;28;20247;-80
2022/06/13 09:03:10;;;;;;;6.37;2.40;;;;;;;20.49;45.64;101173.88;4993851;28;20209;-80
2022/06/13 09:05:43;;;;;;;4.20;2.20;;;;;;;20.40;45.42;101175.66;4997339;28;20220;-81
2022/06/13 09:08:14;;;;;;;6.73;1.90;;;;;;;20.35;45.42;101167.94;4988885;28;20212;-82
2022/06/13 09:10:48;;;;;;;5.13;1.87;;;;;;;20.26;44.87;101173.34;4986698;28;20230;-81
2022/06/13 09:13:23;;;;;;;6.00;2.03;;;;;;;20.15;45.11;101166.28;4983633;28;20222;-80
2022/06/13 09:15:55;;;;;;;6.63;1.90;;;;;;;20.13;44.96;101168.28;4990355;28;20754;-82
2022/06/13 09:18:28;;;;;;;5.23;1.80;;;;;;;20.23;45.08;101168.25;4995657;28;20217;-82
2022/06/13 09:21:01;;;;;;;4.67;1.57;;;;;;;20.34;44.39;101162.66;4988177;28;20236;-82
2022/06/13 09:23:35;;;;;;;3.97;1.77;;;;;;;20.37;43.77;101159.69;4983672;28;20213;-80
2022/06/13 09:26:10;;;;;;;3.77;1.53;;;;;;;20.36;42.35;101160.66;4988352;28;20201;-81
2022/06/13 09:28:44;;;;;;;4.20;1.53;;;;;;;20.39;42.34;101155.00;4984393;28;20204;-82
2022/06/13 09:31:14;;;;;;;6.10;1.83;;;;;;;20.46;42.67;101153.38;4987365;28;20233;-81
2022/06/13 09:33:45;;;;;;;6.37;1.50;;;;;;;20.61;42.76;101151.88;4981468;28;20857;-80
2022/06/13 09:36:20;;;;;;;7.50;1.60;;;;;;;20.76;43.14;101150.41;4985126;28;20206;-80
2022/06/13 09:38:49;;;;;;;4.13;1.67;;;;;;;20.93;43.05;101147.88;4994820;28;20216;-80
2022/06/13 09:41:33;;;;;;;5.93;1.70;;;;;;;21.08;43.57;101146.38;4996362;28;20238;-80
2022/06/13 09:44:12;;;;;;;3.60;1.80;;;;;;;21.28;43.23;101156.09;4988498;28;20210;-81
2022/06/13 09:46:48;;;;;;;5.25;1.58;;;;;;;21.44;41.89;101149.97;4995113;28;20202;-81
2022/06/13 09:49:21;;;;;;;5.35;2.05;;;;;;;21.45;40.80;101154.38;4996895;28;20199;-80
2022/06/13 09:51:58;;;;;;;4.35;1.58;;;;;;;21.55;40.67;101151.59;4992900;28;20230;-80
2022/06/13 09:54:38;;;;;;;3.63;1.80;;;;;;;21.59;40.28;101159.25;4979503;28;20207;-80
2022/06/13 09:57:15;;;;;;;5.03;1.60;;;;;;;21.54;39.94;101163.44;4983102;28;20318;-81
2022/06/13 10:00:01;;;;;;;5.65;1.73;;;;;;;21.47;39.16;101161.38;4992054;28;20206;-81
2022/06/13 10:02:39;;;;;;;3.80;1.60;;;;;;;21.39;39.51;101153.13;4987113;28;20245;-81
2022/06/13 10:05:13;;;;;;;3.55;2.00;;;;;;;21.33;39.12;101163.72;4984344;28;20557;-80
2022/06/13 10:07:49;;;;;;;5.20;1.50;;;;;;;21.28;39.37;101169.63;4983182;28;20208;-80
2022/06/13 10:10:23;;;;;;;4.15;1.15;;;;;;;21.22;39.66;101197.31;4987529;28;20210;-81
2022/06/13 10:12:59;;;;;;;6.65;1.70;;;;;;;21.04;40.27;101212.66;4989785;28;20200;-82
2022/06/13 10:15:41;;;;;;;2.87;1.40;;;;;;;20.79;41.81;101208.78;4993308;28;20224;-83
2022/06/13 10:18:26;;;;;;;1.37;1.10;;;;;;;20.44;43.32;101215.75;4998082;28;20205;-82
2022/06/13 10:20:55;;;;;;;4.67;1.47;;;;;;;20.07;45.26;101220.22;4998639;28;20317;-82
2022/06/13 10:23:33;;;;;;;3.20;1.13;;;;;;;19.74;46.91;101222.38;4995426;28;20216;-80
2022/06/13 10:26:10;;;;;;;2.53;1.30;;;;;;;19.45;48.89;101223.34;4980153;28;20571;-83
2022/06/13 10:28:54;;;;;;;2.33;0.93;;;;;;;19.19;49.82;101225.69;4981064;28;20579;-81
2022/06/13 10:31:34;;;;;;;2.97;1.20;;;;;;;18.92;50.28;101212.84;4990134;28;20229;-82
2022/06/13 10:34:08;;;;;;;2.60;1.00;;;;;;;18.69;50.78;101196.84;4985876;28;20210;-82
2022/06/13 10:36:40;;;;;;;2.80;1.23;;;;;;;18.55;51.50;101191.81;4995448;28;20766;-81
2022/06/13 10:39:11;;;;;;;2.63;1.30;;;;;;;18.52;52.06;101186.66;4995819;28;20204;-82
2022/06/13 10:41:41;;;;;;;2.37;0.93;;;;;;;18.62;52.11;101189.47;4988584;28;20225;-81
2022/06/13 10:44:11;;;;;;;3.43;1.10;;;;;;;18.71;51.59;101191.31;4986093;28;20210;-81
2022/06/13 10:46:43;;;;;;;2.87;1.47;;;;;;;18.78;51.48;101191.66;4986645;28;20209;-81
2022/06/13 10:49:16;;;;;;;2.13;1.10;;;;;;;18.84;50.71;101200.03;4993083;28;20921;-81
2022/06/13 10:51:44;;;;;;;2.20;1.00;;;;;;;18.87;49.83;101204.31;4977320;28;20695;-82
2022/06/13 10:54:16;;;;;;;1.50;1.00;;;;;;;18.85;49.52;101214.38;4986141;28;20212;-82
2022/06/13 10:56:45;;;;;;;3.00;1.30;;;;;;;18.82;50.49;101225.44;4982762;28;20200;-81
2022/06/13 10:59:23;;;;;;;2.97;1.30;;;;;;;18.83;51.38;101233.41;4990353;28;20241;-81
2022/06/13 11:01:59;;;;;;;2.83;1.40;;;;;;;18.83;52.57;101246.91;4993032;28;20238;-80
2022/06/13 11:04:27;;;;;;;3.83;1.50;;;;;;;18.76;54.08;101236.78;4980625;28;20629;-80
2022/06/13 11:06:57;;;;;;;4.73;1.53;;;;;;;18.69;55.10;101244.56;4989606;28;20219;-81
2022/06/13 11:09:28;;;;;;;3.47;1.47;;;;;;;18.62;55.76;101248.81;4977419;28;20265;-80
2022/06/13 11:11:58;;;;;;;4.17;1.83;;;;;;;18.58;57.14;101258.13;4984029;28;20224;-80
2022/06/13 11:14:36;;;;;;;3.53;1.57;;;;;;;18.51;57.39;101252.41;4989487;28;20219;-80
2022/06/13 11:22:58;;;;;;;3.03;1.60;;;;;;;18.29;58.38;101252.53;4971150;28;20233;-81
2022/06/13 11:25:28;;;;;;;2.47;1.37;;;;;;;18.18;58.21;101258.00;4993553;28;20233;-81
2022/06/13 11:28:07;;;;;;;5.20;1.73;;;;;;;18.06;57.66;101253.69;4986929;28;20229;-81
2022/06/13 11:30:48;;;;;;;4.10;1.50;;;;;;;17.93;57.40;101264.63;4993292;28;20223;-80
2022/06/13 11:33:24;;;;;;;2.87;1.60;;;;;;;17.85;57.24;101259.03;4992518;28;20253;-82
2022/06/13 11:35:54;;;;;;;3.07;1.60;;;;;;;17.80;57.55;101262.09;4993945;28;20213;-80
2022/06/13 11:38:23;;;;;;;3.17;1.50;;;;;;;17.77;57.81;101277.66;4993785;28;20265;-80
2022/06/13 11:41:01;;;;;;;2.70;1.30;;;;;;;17.75;58.08;101268.84;4995258;28;20220;-80
2022/06/13 11:43:35;;;;;;;3.27;1.37;;;;;;;17.73;57.69;101262.78;4995108;28;20707;-81
2022/06/13 11:46:06;;;;;;;2.17;1.20;;;;;;;17.71;57.45;101270.13;4994180;28;20207;-80
2022/06/13 11:48:35;;;;;;;1.37;1.27;;;;;;;17.70;57.45;101271.97;4998102;28;20206;-81
2022/06/13 11:51:04;;;;;;;2.23;1.40;;;;;;;17.71;57.45;101289.84;4986471;28;20715;-80
2022/06/13 11:53:37;;;;;;;2.33;1.00;;;;;;;17.75;57.53;101293.97;4994547;28;20198;-80
2022/06/13 11:56:20;;;;;;;1.63;1.00;;;;;;;17.73;56.72;101281.63;4996430;28;20203;-81
2022/06/13 11:58:50;;;;;;;6.37;0.83;;;;;;;17.71;56.65;101284.44;4988188;28;20277;-81
2022/06/13 12:01:26;;;;;;;1.90;0.77;;;;;;;17.71;56.55;101292.53;4991163;28;20234;-83
2022/06/13 12:04:05;;;;;;;1.60;0.60;;;;;;;17.71;56.51;101283.59;4988510;28;20234;-81